Time;durP1;ratioP1;P1;durP2;ratioP2;P2;SDS_P1;SDS_P2;PMS_P1;PMS_P2;Temp;Humidity;BMP_temperature;BMP_pressure;BME280_temperature;BME280_humidity;BME280_pressure;Samples;Min_cycle;Max_cycle;Signal;HPM_P1;HPM_P2
2021/12/15 00:02:17;;;;;;;4.07;3.83;;;8.30;99.90;;;;;;5023600;28;20203;-80
2021/12/15 00:04:45;;;;;;;9.10;4.88;;;8.30;99.90;;;;;;5024001;28;20202;-79
2021/12/15 00:07:12;;;;;;;3.72;3.45;;;8.30;99.90;;;;;;5023036;28;20696;-80
2021/12/15 00:09:40;;;;;;;2.95;2.75;;;8.30;99.90;;;;;;5023192;28;20206;-80
2021/12/15 00:12:17;;;;;;;0.40;0.30;;;8.30;99.90;;;;;;5024166;28;20192;-80
2021/12/15 00:14:45;;;;;;;2.42;2.05;;;8.30;99.90;;;;;;5022960;28;20202;-80
2021/12/15 00:17:14;;;;;;;2.50;2.40;;;8.30;99.90;;;;;;5023566;28;20320;-81
2021/12/15 00:19:41;;;;;;;0.80;0.80;;;8.30;99.90;;;;;;5023557;28;20291;-79
2021/12/15 00:22:08;;;;;;;1.65;1.38;;;8.30;99.90;;;;;;5023206;28;20202;-80
2021/12/15 00:24:36;;;;;;;2.42;2.30;;;8.30;99.90;;;;;;5022936;28;20202;-79
2021/12/15 00:27:04;;;;;;;2.75;0.82;;;8.30;99.90;;;;;;5021984;28;20219;-80
2021/12/15 00:29:30;;;;;;;2.58;2.35;;;8.30;99.90;;;;;;5022180;28;20198;-79
2021/12/15 00:32:02;;;;;;;2.70;2.40;;;8.30;99.90;;;;;;5023063;28;20209;-80
2021/12/15 00:34:32;;;;;;;1.98;1.05;;;8.30;99.90;;;;;;5022597;28;20182;-80
2021/12/15 00:36:59;;;;;;;0.40;0.40;;;8.30;99.90;;;;;;5022583;28;20427;-79
2021/12/15 00:39:27;;;;;;;1.55;1.48;;;8.30;99.90;;;;;;5022787;28;20648;-80
2021/12/15 00:41:54;;;;;;;9.57;2.05;;;8.40;99.90;;;;;;5023532;28;20229;-80
2021/12/15 00:44:21;;;;;;;18.23;2.30;;;8.40;99.90;;;;;;5023022;28;20199;-80
2021/12/15 00:46:50;;;;;;;1.48;1.40;;;8.40;99.90;;;;;;5022651;28;20221;-80
2021/12/15 00:49:17;;;;;;;1.63;1.58;;;8.40;99.90;;;;;;5022568;28;20270;-80
2021/12/15 00:51:46;;;;;;;4.63;4.32;;;8.40;99.90;;;;;;5022843;28;20224;-81
2021/12/15 00:54:13;;;;;;;3.97;3.67;;;8.40;99.90;;;;;;5021929;28;20201;-80
2021/12/15 00:56:40;;;;;;;2.38;1.25;;;8.40;99.90;;;;;;5022746;28;20218;-79
2021/12/15 00:59:09;;;;;;;1.75;1.63;;;8.40;99.90;;;;;;5021245;28;20213;-79
2021/12/15 01:01:38;;;;;;;0.45;0.45;;;8.40;99.90;;;;;;5023187;28;20209;-79
2021/12/15 01:04:07;;;;;;;25.05;3.17;;;8.30;99.90;;;;;;5021544;28;20206;-78
2021/12/15 01:06:34;;;;;;;3.90;1.20;;;8.30;99.90;;;;;;5022248;28;20218;-80
2021/12/15 01:09:07;;;;;;;3.95;1.45;;;8.30;99.90;;;;;;5020540;28;20199;-79
2021/12/15 01:11:54;;;;;;;2.47;2.38;;;8.30;99.90;;;;;;5021919;28;20197;-80
2021/12/15 01:14:33;;;;;;;2.75;2.67;;;8.40;99.90;;;;;;5021925;28;20186;-80
2021/12/15 01:19:52;;;;;;;2.47;2.28;;;8.40;99.90;;;;;;5020875;28;20239;-81
2021/12/15 01:22:24;;;;;;;0.82;0.82;;;8.30;99.90;;;;;;5022144;28;20696;-80
2021/12/15 01:24:54;;;;;;;3.85;2.95;;;8.40;99.90;;;;;;5015331;28;20199;-76
2021/12/15 01:27:21;;;;;;;2.65;2.45;;;8.40;99.90;;;;;;5014956;28;20258;-77
2021/12/15 01:29:48;;;;;;;7.32;2.78;;;8.40;99.90;;;;;;5014013;28;20201;-78
2021/12/15 01:32:15;;;;;;;13.02;6.15;;;8.40;99.90;;;;;;5014978;28;20285;-79
2021/12/15 01:34:42;;;;;;;4.20;3.25;;;8.40;99.90;;;;;;5014009;28;20206;-78
2021/12/15 01:37:09;;;;;;;2.70;2.50;;;8.40;99.90;;;;;;5014452;28;20211;-78
2021/12/15 01:39:36;;;;;;;0.80;0.80;;;8.40;99.90;;;;;;5013646;28;20195;-78
2021/12/15 01:42:06;;;;;;;6.85;2.53;;;8.40;99.90;;;;;;5013692;28;20207;-78
2021/12/15 01:47:17;;;;;;;1.70;1.48;;;8.40;99.90;;;;;;5013779;28;20795;-78
2021/12/15 01:49:46;;;;;;;9.50;6.00;;;8.40;99.90;;;;;;5013341;28;20902;-78
2021/12/15 01:52:16;;;;;;;4.00;3.70;;;8.40;99.90;;;;;;5013804;28;20211;-78
2021/12/15 01:54:47;;;;;;;1.30;1.20;;;8.40;99.90;;;;;;5014174;28;20208;-78
2021/12/15 01:57:16;;;;;;;7.05;1.80;;;8.40;99.90;;;;;;5014128;28;20218;-78
2021/12/15 01:59:45;;;;;;;0.40;0.30;;;8.40;99.90;;;;;;5013576;28;20665;-79
2021/12/15 02:02:12;;;;;;;9.27;5.68;;;8.40;99.90;;;;;;5014129;28;20199;-78
2021/12/15 02:04:39;;;;;;;2.35;2.15;;;8.40;99.90;;;;;;5013808;28;20204;-77
2021/12/15 02:07:09;;;;;;;0.75;0.75;;;8.40;99.90;;;;;;5013589;28;20223;-79
2021/12/15 02:10:01;;;;;;;3.10;2.50;;;8.30;99.90;;;;;;5013316;28;20211;-78
2021/12/15 02:12:34;;;;;;;1.65;1.55;;;8.30;99.90;;;;;;5013523;28;20245;-77
2021/12/15 02:15:02;;;;;;;1.10;1.10;;;8.30;99.90;;;;;;5013286;28;20219;-78
2021/12/15 02:17:29;;;;;;;2.67;2.00;;;8.30;99.90;;;;;;5013091;28;20205;-78
2021/12/15 02:19:56;;;;;;;0.85;0.85;;;8.30;99.90;;;;;;5013371;28;20202;-78
2021/12/15 02:22:28;;;;;;;3.00;2.72;;;8.30;99.90;;;;;;5016786;28;20570;-78
2021/12/15 02:24:55;;;;;;;4.32;4.13;;;8.30;99.90;;;;;;5016438;28;20205;-77
2021/12/15 02:27:22;;;;;;;2.40;2.28;;;8.20;99.90;;;;;;5013395;28;20981;-78
2021/12/15 02:29:57;;;;;;;5.45;4.15;;;8.20;99.90;;;;;;5013736;28;20205;-78
2021/12/15 02:32:35;;;;;;;7.57;3.40;;;8.30;99.90;;;;;;5013892;28;20182;-78
2021/12/15 02:37:50;;;;;;;4.13;3.83;;;8.20;99.90;;;;;;5012996;28;20186;-78
2021/12/15 02:40:18;;;;;;;2.65;2.45;;;8.20;99.90;;;;;;5013571;28;20205;-78
2021/12/15 02:42:48;;;;;;;1.08;0.98;;;8.20;99.90;;;;;;5014237;28;20223;-78
2021/12/15 02:45:17;;;;;;;1.23;1.13;;;8.20;99.90;;;;;;5013922;28;20223;-78
2021/12/15 02:47:44;;;;;;;4.55;3.42;;;8.20;99.90;;;;;;5012917;28;20226;-78
2021/12/15 02:50:14;;;;;;;8.55;5.00;;;8.20;99.90;;;;;;5011954;28;20233;-78
2021/12/15 02:52:41;;;;;;;1.02;1.00;;;8.20;99.90;;;;;;5012535;28;20220;-78
2021/12/15 02:55:11;;;;;;;2.20;2.10;;;8.10;99.90;;;;;;5012824;28;20198;-78
2021/12/15 02:57:38;;;;;;;3.70;3.30;;;8.20;99.90;;;;;;5012573;28;20195;-78
2021/12/15 03:00:16;;;;;;;8.27;2.15;;;8.20;99.90;;;;;;5010385;28;20673;-78
2021/12/15 03:05:50;;;;;;;5.38;3.05;;;8.20;99.90;;;;;;4989810;28;20211;-78
2021/12/15 03:08:20;;;;;;;4.15;2.42;;;8.20;99.90;;;;;;4990370;28;20559;-78
2021/12/15 03:16:21;;;;;;;3.58;3.25;;;8.20;99.90;;;;;;4990463;28;20341;-78
2021/12/15 03:18:48;;;;;;;3.97;3.67;;;8.20;99.90;;;;;;4989734;28;20202;-75
2021/12/15 03:21:17;;;;;;;5.70;2.17;;;8.20;99.90;;;;;;4990239;28;20198;-78
2021/12/15 03:23:50;;;;;;;4.03;2.08;;;8.30;99.90;;;;;;4990132;28;20210;-79
2021/12/15 03:26:22;;;;;;;3.80;1.60;;;8.30;99.90;;;;;;4990357;28;20219;-78
2021/12/15 03:34:42;;;;;;;11.70;6.78;;;8.30;99.90;;;;;;4990452;28;20190;-78
2021/12/15 03:37:23;;;;;;;7.28;2.65;;;8.30;99.90;;;;;;5007005;28;20228;-77
2021/12/15 03:39:52;;;;;;;3.15;2.80;;;8.30;99.90;;;;;;5012683;28;20277;-78
2021/12/15 03:42:27;;;;;;;2.88;2.67;;;8.30;99.90;;;;;;5012670;28;20831;-78
2021/12/15 03:44:55;;;;;;;8.52;6.18;;;8.30;99.90;;;;;;5011955;28;20197;-77
2021/12/15 03:47:24;;;;;;;7.40;3.15;;;8.30;99.90;;;;;;5012153;28;20205;-78
2021/12/15 03:49:53;;;;;;;2.42;2.17;;;8.30;99.90;;;;;;5011758;28;20223;-78
2021/12/15 03:52:20;;;;;;;4.28;4.00;;;8.30;99.90;;;;;;5011854;28;20195;-77
2021/12/15 03:54:48;;;;;;;4.82;4.22;;;8.30;99.90;;;;;;5011892;28;20213;-78
2021/12/15 03:57:15;;;;;;;3.35;2.55;;;8.30;99.90;;;;;;5011953;28;20215;-78
2021/12/15 03:59:45;;;;;;;11.52;4.53;;;8.30;99.90;;;;;;5011382;28;20244;-78
2021/12/15 04:02:14;;;;;;;4.78;1.98;;;8.30;99.90;;;;;;5011364;28;20239;-78
2021/12/15 04:04:42;;;;;;;5.57;3.70;;;8.40;99.90;;;;;;5012627;28;20209;-78
2021/12/15 04:07:10;;;;;;;4.50;4.10;;;8.40;99.90;;;;;;5011898;28;20225;-78
2021/12/15 04:09:38;;;;;;;17.55;7.20;;;8.30;99.90;;;;;;5011683;28;20206;-78
2021/12/15 04:12:06;;;;;;;7.28;2.55;;;8.30;99.90;;;;;;5016090;28;20565;-77
2021/12/15 04:14:42;;;;;;;6.40;3.53;;;8.30;99.90;;;;;;5015600;28;20197;-79
2021/12/15 04:17:26;;;;;;;3.92;3.63;;;8.30;99.90;;;;;;5017319;28;20228;-78
2021/12/15 04:19:56;;;;;;;2.60;1.38;;;8.30;99.90;;;;;;5016847;28;20268;-80
2021/12/15 04:22:23;;;;;;;2.38;2.28;;;8.30;99.90;;;;;;5019590;28;20201;-82
2021/12/15 04:24:50;;;;;;;19.75;8.82;;;8.30;99.90;;;;;;5017048;28;20546;-78
2021/12/15 04:27:20;;;;;;;5.97;3.70;;;8.30;99.90;;;;;;5016112;28;20209;-79
2021/12/15 04:29:47;;;;;;;1.50;1.50;;;8.30;99.90;;;;;;5016238;28;20297;-78
2021/12/15 04:32:21;;;;;;;1.40;0.95;;;8.30;99.90;;;;;;5016500;28;20203;-79
2021/12/15 04:34:48;;;;;;;2.67;2.58;;;8.30;99.90;;;;;;5016731;28;20275;-79
2021/12/15 04:37:15;;;;;;;8.98;5.03;;;8.30;99.90;;;;;;5015629;28;20733;-79
2021/12/15 04:39:42;;;;;;;10.38;4.88;;;8.40;99.90;;;;;;5015929;28;20191;-78
2021/12/15 04:42:11;;;;;;;8.32;3.95;;;8.30;99.90;;;;;;5015259;28;20301;-79
2021/12/15 04:44:38;;;;;;;3.42;2.72;;;8.40;99.90;;;;;;5015616;28;20203;-78
2021/12/15 04:47:09;;;;;;;6.97;4.65;;;8.40;99.90;;;;;;5015781;28;20227;-77
2021/12/15 04:49:41;;;;;;;1.52;1.42;;;8.40;99.90;;;;;;5015678;28;20699;-79
2021/12/15 04:52:09;;;;;;;2.67;2.15;;;8.40;99.90;;;;;;5015349;28;20213;-77
2021/12/15 04:54:36;;;;;;;6.75;5.78;;;8.40;99.90;;;;;;5015310;28;20197;-78
2021/12/15 04:57:04;;;;;;;8.07;5.85;;;8.40;99.90;;;;;;5016097;28;20226;-78
2021/12/15 04:59:31;;;;;;;2.97;2.75;;;8.40;99.90;;;;;;5015397;28;20196;-78
2021/12/15 05:01:58;;;;;;;2.08;1.98;;;8.40;99.90;;;;;;5015978;28;20197;-78
2021/12/15 05:04:26;;;;;;;0.40;0.30;;;8.40;99.90;;;;;;5016720;28;20208;-79
2021/12/15 05:06:54;;;;;;;4.50;3.42;;;8.30;99.90;;;;;;5016080;28;20867;-78
2021/12/15 05:09:21;;;;;;;12.07;8.10;;;8.30;99.90;;;;;;5015650;28;20216;-78
2021/12/15 05:11:50;;;;;;;2.25;1.67;;;8.40;99.90;;;;;;5015737;28;20202;-77
2021/12/15 05:14:17;;;;;;;2.90;1.95;;;8.40;99.90;;;;;;5015944;28;20197;-79
2021/12/15 05:16:45;;;;;;;5.35;3.13;;;8.40;99.90;;;;;;5016285;28;20225;-78
2021/12/15 05:19:12;;;;;;;9.65;6.90;;;8.40;99.90;;;;;;5014624;28;20680;-79
2021/12/15 05:21:39;;;;;;;7.18;3.42;;;8.30;99.90;;;;;;5015292;28;20200;-80
2021/12/15 05:24:14;;;;;;;0.40;0.40;;;8.30;99.90;;;;;;5016017;28;20193;-75
2021/12/15 05:26:42;;;;;;;12.23;5.75;;;8.30;99.90;;;;;;5015292;28;20585;-77
2021/12/15 05:29:08;;;;;;;8.20;5.13;;;8.30;99.90;;;;;;5014876;28;20591;-77
2021/12/15 05:31:36;;;;;;;8.88;5.97;;;8.30;99.90;;;;;;5016638;28;20632;-78
2021/12/15 05:34:03;;;;;;;11.85;6.05;;;8.30;99.90;;;;;;5012300;28;20321;-78
2021/12/15 05:36:30;;;;;;;4.50;3.83;;;8.30;99.90;;;;;;5004227;28;20252;-77
2021/12/15 05:38:57;;;;;;;16.77;5.22;;;8.30;99.90;;;;;;5006249;28;20222;-76
2021/12/15 05:41:26;;;;;;;3.65;2.50;;;8.30;99.90;;;;;;5008851;28;20209;-79
2021/12/15 05:43:53;;;;;;;0.73;0.73;;;8.30;99.90;;;;;;4999730;28;20626;-79
2021/12/15 05:46:20;;;;;;;0.52;0.52;;;8.30;99.90;;;;;;4998214;28;20219;-80
2021/12/15 05:48:47;;;;;;;9.07;3.22;;;8.30;99.90;;;;;;4996868;28;20219;-79
2021/12/15 05:51:14;;;;;;;0.40;0.30;;;8.30;99.90;;;;;;5009208;28;20203;-80
2021/12/15 05:53:41;;;;;;;1.50;1.40;;;8.30;99.90;;;;;;5014155;28;20194;-79
2021/12/15 05:56:07;;;;;;;1.20;1.20;;;8.30;99.90;;;;;;4998354;28;20312;-79
2021/12/15 05:58:37;;;;;;;8.55;3.17;;;8.30;99.90;;;;;;4997865;28;20203;-79
2021/12/15 06:01:05;;;;;;;6.47;4.60;;;8.40;99.90;;;;;;4996698;28;20293;-79
2021/12/15 06:03:32;;;;;;;4.95;2.17;;;8.30;99.90;;;;;;5011125;28;20199;-80
2021/12/15 06:06:00;;;;;;;2.13;1.98;;;8.30;99.90;;;;;;5003239;28;20235;-78
2021/12/15 06:08:27;;;;;;;25.98;2.20;;;8.30;99.90;;;;;;4996042;28;20215;-79
2021/12/15 06:10:54;;;;;;;2.08;1.40;;;8.30;99.90;;;;;;4996521;28;20249;-78
2021/12/15 06:13:22;;;;;;;5.65;4.22;;;8.30;99.90;;;;;;4998871;28;20203;-79
2021/12/15 06:15:51;;;;;;;1.42;1.42;;;8.30;99.90;;;;;;4997959;28;20220;-79
2021/12/15 06:18:21;;;;;;;10.00;2.97;;;8.40;99.90;;;;;;4997935;28;20193;-78
2021/12/15 06:20:50;;;;;;;1.60;1.50;;;8.30;99.90;;;;;;4995689;28;20198;-79
2021/12/15 06:23:19;;;;;;;6.45;2.78;;;8.30;99.90;;;;;;4994904;28;20195;-79
2021/12/15 06:25:49;;;;;;;0.40;0.30;;;8.30;99.90;;;;;;4996094;28;20586;-79
2021/12/15 06:28:16;;;;;;;4.35;3.13;;;8.30;99.90;;;;;;4995735;28;20218;-80
2021/12/15 06:30:44;;;;;;;4.30;3.97;;;8.40;99.90;;;;;;5016055;28;20290;-79
2021/12/15 06:33:13;;;;;;;0.75;0.75;;;8.40;99.90;;;;;;5011586;28;20210;-78
2021/12/15 06:35:41;;;;;;;2.38;2.25;;;8.40;99.90;;;;;;4995710;28;20598;-79
2021/12/15 06:38:08;;;;;;;3.35;3.25;;;8.40;99.90;;;;;;4997301;28;20578;-78
2021/12/15 06:40:36;;;;;;;0.73;0.73;;;8.40;99.90;;;;;;4995556;28;20209;-79
2021/12/15 06:43:04;;;;;;;3.92;2.47;;;8.40;99.90;;;;;;5004034;28;20230;-79
2021/12/15 06:45:37;;;;;;;4.43;2.47;;;8.40;99.90;;;;;;5005246;28;20277;-80
2021/12/15 06:59:03;;;;;;;4.85;4.65;;;8.40;99.90;;;;;;4997506;28;20206;-79
2021/12/15 07:01:30;;;;;;;1.27;1.17;;;8.40;99.90;;;;;;4997431;28;20202;-80
2021/12/15 07:03:57;;;;;;;3.53;2.38;;;8.40;99.90;;;;;;5017126;28;20208;-81
2021/12/15 07:06:25;;;;;;;2.78;2.67;;;8.40;99.90;;;;;;5018038;28;20309;-80
2021/12/15 07:08:52;;;;;;;5.97;1.95;;;8.40;99.90;;;;;;5017862;28;20243;-80
2021/12/15 07:11:19;;;;;;;0.77;0.73;;;8.40;99.90;;;;;;5018949;28;20197;-81
2021/12/15 07:13:46;;;;;;;1.67;1.58;;;8.40;99.90;;;;;;5016724;28;20285;-78
2021/12/15 07:16:13;;;;;;;6.18;5.47;;;8.50;99.90;;;;;;5012545;28;20248;-79
2021/12/15 07:18:48;;;;;;;2.08;1.95;;;8.40;99.90;;;;;;5012833;28;20232;-78
2021/12/15 07:21:20;;;;;;;2.10;2.00;;;8.40;99.90;;;;;;5012247;28;20645;-79
2021/12/15 07:23:50;;;;;;;37.63;8.32;;;8.40;99.90;;;;;;5012952;28;20222;-77
2021/12/15 07:26:17;;;;;;;7.18;4.03;;;8.40;99.90;;;;;;5012470;28;20304;-78
2021/12/15 07:28:44;;;;;;;1.50;1.40;;;8.40;99.90;;;;;;5012145;28;20681;-79
2021/12/15 07:31:13;;;;;;;0.93;0.82;;;8.40;99.90;;;;;;5012454;28;20203;-79
2021/12/15 07:33:40;;;;;;;1.35;1.25;;;8.40;99.90;;;;;;5015168;28;20602;-80
2021/12/15 07:36:07;;;;;;;2.15;2.05;;;8.40;99.90;;;;;;5014170;28;20321;-80
2021/12/15 07:38:41;;;;;;;0.60;0.60;;;8.50;99.90;;;;;;5014614;28;20221;-79
2021/12/15 07:41:18;;;;;;;1.25;1.15;;;8.40;99.90;;;;;;5013759;28;20248;-79
2021/12/15 07:43:45;;;;;;;2.13;0.73;;;8.40;99.90;;;;;;5014657;28;20565;-80
2021/12/15 07:46:13;;;;;;;1.95;0.90;;;8.50;99.90;;;;;;5016793;28;20559;-80
2021/12/15 07:48:40;;;;;;;2.28;2.17;;;8.50;99.90;;;;;;5017399;28;20217;-79
2021/12/15 07:51:09;;;;;;;7.13;3.15;;;8.50;99.90;;;;;;5017860;28;20284;-79
2021/12/15 07:53:38;;;;;;;4.03;2.40;;;8.50;99.90;;;;;;5018280;28;20203;-79
2021/12/15 07:56:06;;;;;;;3.20;2.88;;;8.50;99.90;;;;;;5017895;28;20311;-80
2021/12/15 07:58:35;;;;;;;18.20;7.63;;;8.50;99.90;;;;;;5017712;28;20623;-79
2021/12/15 08:01:04;;;;;;;2.28;2.13;;;8.50;99.90;;;;;;5017059;28;20265;-77
2021/12/15 08:03:33;;;;;;;3.15;2.88;;;8.40;99.90;;;;;;5017411;28;20679;-78
2021/12/15 08:06:01;;;;;;;5.30;3.67;;;8.40;99.90;;;;;;5018198;28;20219;-81
2021/12/15 08:08:28;;;;;;;3.22;2.95;;;8.50;99.90;;;;;;5018277;28;20294;-79
2021/12/15 08:10:56;;;;;;;13.10;4.97;;;8.40;99.90;;;;;;5017552;28;20294;-80
2021/12/15 08:13:24;;;;;;;5.88;3.13;;;8.40;99.90;;;;;;5017084;28;20272;-80
2021/12/15 08:15:53;;;;;;;0.60;0.60;;;8.40;99.90;;;;;;5016481;28;20225;-79
2021/12/15 08:18:21;;;;;;;10.02;5.80;;;8.40;99.90;;;;;;5015298;28;20200;-79
2021/12/15 08:20:50;;;;;;;1.13;1.13;;;8.50;99.90;;;;;;5015357;28;20703;-78
2021/12/15 08:23:17;;;;;;;2.47;2.35;;;8.50;99.90;;;;;;5015682;28;20194;-79
2021/12/15 08:25:44;;;;;;;8.98;2.25;;;8.50;99.90;;;;;;5015631;28;20581;-79
2021/12/15 08:28:12;;;;;;;3.88;3.15;;;8.50;99.90;;;;;;5015535;28;20209;-79
2021/12/15 08:30:41;;;;;;;25.20;6.05;;;8.50;99.90;;;;;;5014666;28;20729;-79
2021/12/15 08:33:12;;;;;;;2.72;2.50;;;8.50;99.90;;;;;;5015495;28;20200;-79
2021/12/15 08:35:41;;;;;;;6.38;5.68;;;8.50;99.90;;;;;;5015549;28;20229;-79
2021/12/15 08:38:09;;;;;;;6.68;5.95;;;8.50;99.90;;;;;;5015399;28;20205;-79
2021/12/15 08:40:37;;;;;;;3.63;2.53;;;8.50;99.90;;;;;;5015815;28;20553;-81
2021/12/15 08:43:06;;;;;;;16.73;8.43;;;8.50;99.90;;;;;;5017982;28;20201;-79
2021/12/15 08:45:35;;;;;;;9.38;8.57;;;8.50;99.90;;;;;;5017477;28;20263;-78
2021/12/15 08:48:02;;;;;;;2.78;2.58;;;8.50;99.90;;;;;;5016648;28;20222;-80
2021/12/15 08:50:34;;;;;;;8.18;5.82;;;8.60;99.90;;;;;;5016849;28;20296;-81
2021/12/15 08:53:02;;;;;;;1.35;1.35;;;8.60;99.90;;;;;;5017119;28;20216;-79
2021/12/15 08:55:30;;;;;;;5.03;3.47;;;8.60;99.90;;;;;;5017231;28;20227;-79
2021/12/15 08:57:59;;;;;;;23.52;3.72;;;8.60;99.90;;;;;;5017511;28;20193;-79
2021/12/15 09:00:27;;;;;;;0.50;0.50;;;8.60;99.90;;;;;;5016703;28;20198;-79
2021/12/15 09:02:55;;;;;;;0.40;0.30;;;8.60;99.90;;;;;;5017818;28;20289;-80
2021/12/15 09:05:23;;;;;;;2.05;1.95;;;8.60;99.90;;;;;;5016985;28;20221;-80
2021/12/15 09:07:54;;;;;;;5.15;4.53;;;8.70;99.90;;;;;;5017204;28;20201;-79
2021/12/15 09:10:24;;;;;;;3.30;0.60;;;8.70;99.90;;;;;;5016356;28;20214;-79
2021/12/15 09:12:50;;;;;;;11.02;7.63;;;8.70;99.90;;;;;;5016747;28;20585;-80
2021/12/15 09:15:18;;;;;;;6.40;3.50;;;8.70;99.90;;;;;;5016132;28;20230;-79
2021/12/15 09:17:45;;;;;;;4.95;4.10;;;8.60;99.90;;;;;;5017398;28;20694;-79
2021/12/15 09:20:15;;;;;;;12.75;3.40;;;8.60;99.90;;;;;;5015651;28;20227;-79
2021/12/15 09:22:43;;;;;;;6.43;2.22;;;8.70;99.90;;;;;;5016354;28;20297;-78
2021/12/15 09:25:12;;;;;;;0.93;0.90;;;8.60;99.90;;;;;;5016469;28;20202;-77
2021/12/15 09:27:40;;;;;;;21.95;7.43;;;8.70;99.90;;;;;;5016493;28;20702;-79
2021/12/15 09:30:08;;;;;;;6.43;5.60;;;8.70;99.90;;;;;;5016247;28;20227;-79
2021/12/15 09:32:35;;;;;;;8.48;4.32;;;8.70;99.90;;;;;;5016746;28;20233;-79
2021/12/15 09:35:02;;;;;;;6.10;5.20;;;8.70;99.90;;;;;;5016122;28;20215;-79
2021/12/15 09:37:29;;;;;;;1.60;1.50;;;8.70;99.90;;;;;;5017027;28;20731;-77
2021/12/15 09:39:56;;;;;;;3.05;2.85;;;8.80;99.90;;;;;;5013626;28;20661;-78
2021/12/15 09:42:31;;;;;;;5.50;4.10;;;8.80;99.90;;;;;;5013858;28;20194;-78
2021/12/15 09:45:03;;;;;;;6.32;3.78;;;8.80;99.90;;;;;;5013663;28;20750;-77
2021/12/15 09:47:45;;;;;;;0.88;0.88;;;8.80;99.90;;;;;;5013505;28;20187;-78
2021/12/15 10:04:17;;;;;;;1.80;1.70;;;8.90;99.90;;;;;;5013370;28;20705;-77
2021/12/15 10:06:51;;;;;;;5.63;2.22;;;8.90;99.90;;;;;;5012757;28;20227;-77
2021/12/15 10:17:47;;;;;;;6.57;5.93;;;9.00;99.90;;;;;;5013293;28;20204;-77
2021/12/15 10:20:21;;;;;;;4.82;2.92;;;8.90;99.90;;;;;;5012801;28;20198;-76
2021/12/15 10:22:51;;;;;;;4.88;4.55;;;8.90;99.90;;;;;;5013049;28;20224;-75
2021/12/15 10:25:24;;;;;;;3.47;3.13;;;8.90;99.90;;;;;;5012815;28;20217;-76
2021/12/15 10:27:54;;;;;;;12.38;5.15;;;8.90;99.90;;;;;;5012774;28;20177;-76
2021/12/15 10:30:26;;;;;;;7.78;4.47;;;8.90;99.90;;;;;;5012009;28;20215;-76
2021/12/15 10:32:59;;;;;;;1.95;1.58;;;8.90;99.90;;;;;;5012550;28;20198;-76
2021/12/15 10:35:29;;;;;;;2.42;2.10;;;9.00;99.90;;;;;;5012555;28;20229;-77
2021/12/15 10:38:26;;;;;;;2.20;2.10;;;9.00;99.90;;;;;;5012947;28;20199;-77
2021/12/15 10:40:57;;;;;;;2.00;1.88;;;9.00;99.90;;;;;;4978128;28;20202;-77
2021/12/15 10:43:28;;;;;;;8.93;6.03;;;9.00;99.90;;;;;;5012456;28;20189;-77
2021/12/15 10:45:59;;;;;;;3.60;3.30;;;8.90;99.90;;;;;;5012547;28;20227;-76
2021/12/15 10:48:37;;;;;;;9.20;5.35;;;9.00;99.90;;;;;;5012232;28;20197;-77
2021/12/15 10:51:18;;;;;;;4.45;2.58;;;9.00;99.90;;;;;;5012016;28;20739;-74
2021/12/15 10:53:46;;;;;;;7.10;4.97;;;9.00;99.90;;;;;;5012845;28;20230;-78
2021/12/15 10:56:15;;;;;;;3.20;3.10;;;9.00;99.90;;;;;;5012129;28;20735;-78
2021/12/15 10:58:45;;;;;;;10.05;4.70;;;9.00;99.90;;;;;;5012451;28;20207;-78
2021/12/15 11:01:40;;;;;;;6.38;1.95;;;9.00;99.90;;;;;;5012712;28;20661;-77
2021/12/15 11:04:29;;;;;;;4.15;3.75;;;9.00;99.90;;;;;;4998849;28;20203;-78
2021/12/15 11:07:16;;;;;;;5.25;4.78;;;9.10;99.90;;;;;;5011943;28;20310;-78
2021/12/15 11:09:46;;;;;;;3.53;3.03;;;9.10;99.90;;;;;;5011781;28;20218;-78
2021/12/15 11:12:17;;;;;;;5.15;4.88;;;9.10;99.90;;;;;;5012490;28;20701;-78
2021/12/15 11:14:46;;;;;;;1.30;1.23;;;9.10;99.90;;;;;;5012019;28;20201;-77
2021/12/15 11:17:17;;;;;;;6.97;6.03;;;9.20;99.90;;;;;;5012372;28;20594;-78
2021/12/15 11:19:51;;;;;;;2.22;2.05;;;9.20;99.90;;;;;;5011537;28;20183;-77
2021/12/15 11:22:43;;;;;;;4.32;3.90;;;9.20;99.90;;;;;;5016002;28;20370;-78
2021/12/15 11:25:14;;;;;;;10.73;3.70;;;9.20;99.90;;;;;;5016047;28;20601;-76
2021/12/15 11:27:42;;;;;;;1.45;1.35;;;9.20;99.90;;;;;;5016056;28;20211;-79
2021/12/15 11:30:12;;;;;;;4.45;4.20;;;9.20;99.90;;;;;;5015590;28;20222;-77
2021/12/15 11:32:44;;;;;;;5.20;4.75;;;9.30;99.90;;;;;;5015922;28;20205;-78
2021/12/15 11:35:17;;;;;;;4.13;3.47;;;9.30;99.90;;;;;;5015533;28;20202;-76
2021/12/15 11:37:56;;;;;;;2.00;1.92;;;9.30;99.90;;;;;;5015957;28;20279;-79
2021/12/15 11:40:30;;;;;;;4.25;3.78;;;9.30;99.90;;;;;;5015707;28;20180;-77
2021/12/15 11:42:57;;;;;;;2.55;2.45;;;9.30;99.90;;;;;;5015269;28;20576;-78
2021/12/15 11:45:24;;;;;;;1.60;1.55;;;9.30;99.90;;;;;;5015717;28;20216;-77
2021/12/15 11:48:09;;;;;;;4.82;2.30;;;9.30;99.90;;;;;;5015371;28;20253;-76
2021/12/15 11:50:40;;;;;;;2.22;2.10;;;9.30;99.90;;;;;;5014905;28;20310;-77
2021/12/15 11:53:14;;;;;;;2.10;2.00;;;9.30;99.90;;;;;;5015857;28;20217;-74
2021/12/15 11:55:41;;;;;;;6.07;5.40;;;9.40;99.90;;;;;;5015451;28;20222;-78
2021/12/15 11:58:08;;;;;;;3.78;2.78;;;9.40;99.90;;;;;;5015260;28;20209;-78
2021/12/15 12:00:35;;;;;;;1.73;1.73;;;9.40;99.90;;;;;;5014823;28;20262;-77
2021/12/15 12:03:03;;;;;;;2.35;2.25;;;9.40;99.90;;;;;;5015176;28;20205;-79
2021/12/15 12:05:33;;;;;;;14.25;7.30;;;9.40;99.90;;;;;;5015571;28;20219;-78
2021/12/15 12:08:01;;;;;;;1.13;1.13;;;9.40;99.90;;;;;;5015411;28;20297;-76
2021/12/15 12:10:32;;;;;;;2.97;2.78;;;9.50;99.90;;;;;;5014841;28;20218;-78
2021/12/15 12:13:07;;;;;;;10.00;3.35;;;9.50;99.90;;;;;;5015403;28;20229;-78
2021/12/15 12:15:36;;;;;;;0.50;0.50;;;9.50;99.90;;;;;;5014382;28;20223;-78
2021/12/15 12:18:08;;;;;;;2.50;0.70;;;9.50;99.90;;;;;;5015305;28;20569;-77
2021/12/15 12:20:39;;;;;;;8.65;5.38;;;9.50;99.90;;;;;;5014757;28;20186;-78
2021/12/15 12:23:08;;;;;;;4.32;2.88;;;9.50;99.90;;;;;;5015183;28;20186;-77
2021/12/15 12:25:38;;;;;;;19.05;7.70;;;9.50;99.90;;;;;;5014845;28;20225;-79
2021/12/15 12:28:07;;;;;;;0.77;0.47;;;9.50;99.90;;;;;;5014795;28;20226;-78
2021/12/15 12:30:37;;;;;;;5.25;4.85;;;9.50;99.90;;;;;;5014356;28;20223;-78
2021/12/15 12:33:08;;;;;;;7.57;6.85;;;9.60;99.90;;;;;;5015254;28;20197;-78
2021/12/15 12:35:40;;;;;;;2.60;2.50;;;9.60;99.90;;;;;;5014506;28;20601;-77
2021/12/15 12:38:11;;;;;;;7.10;4.35;;;9.60;99.90;;;;;;5014398;28;20207;-78
2021/12/15 12:40:41;;;;;;;1.30;0.73;;;9.60;99.90;;;;;;5014217;28;20200;-77
2021/12/15 12:43:18;;;;;;;4.70;4.25;;;9.60;99.90;;;;;;5014508;28;20209;-75
2021/12/15 12:45:55;;;;;;;2.35;2.05;;;9.60;99.90;;;;;;5014311;28;20704;-77
2021/12/15 12:48:35;;;;;;;2.78;2.67;;;9.70;99.90;;;;;;5014166;28;20187;-77
2021/12/15 12:59:27;;;;;;;1.20;0.75;;;9.70;99.90;;;;;;5014109;28;20222;-77
2021/12/15 13:01:54;;;;;;;0.65;0.65;;;9.80;99.90;;;;;;5014311;28;20666;-78
2021/12/15 13:04:23;;;;;;;2.33;1.75;;;9.80;99.90;;;;;;5014727;28;20299;-78
2021/12/15 13:06:49;;;;;;;4.93;4.53;;;9.80;99.90;;;;;;5013382;28;20215;-77
2021/12/15 13:09:19;;;;;;;1.25;0.93;;;9.80;99.90;;;;;;5014029;28;20200;-78
2021/12/15 13:11:50;;;;;;;7.35;6.70;;;9.80;99.90;;;;;;5013708;28;20215;-77
2021/12/15 13:14:19;;;;;;;1.38;1.27;;;9.80;99.90;;;;;;5014224;28;20183;-77
2021/12/15 13:16:51;;;;;;;0.60;0.60;;;9.70;99.90;;;;;;5013941;28;20266;-77
2021/12/15 13:19:24;;;;;;;0.40;0.30;;;9.70;99.90;;;;;;5013322;28;20209;-77
2021/12/15 13:22:05;;;;;;;1.30;1.20;;;9.80;99.90;;;;;;5013494;28;20218;-78
2021/12/15 13:30:29;;;;;;;0.70;0.70;;;9.80;99.90;;;;;;5013325;28;20222;-77
2021/12/15 13:33:04;;;;;;;30.45;4.75;;;9.80;99.90;;;;;;5013421;28;20538;-77
2021/12/15 13:35:39;;;;;;;6.75;4.20;;;9.80;99.90;;;;;;5013676;28;20223;-77
2021/12/15 13:38:06;;;;;;;1.88;1.77;;;9.80;99.90;;;;;;5013705;28;20209;-77
2021/12/15 13:41:10;;;;;;;2.40;2.30;;;9.80;99.90;;;;;;5013386;28;20199;-77
2021/12/15 13:43:57;;;;;;;5.78;2.45;;;9.80;99.90;;;;;;5002982;28;20203;-77
2021/12/15 13:46:34;;;;;;;15.13;10.55;;;9.80;99.90;;;;;;5010265;28;20227;-77
2021/12/15 13:49:05;;;;;;;2.20;2.10;;;9.80;99.90;;;;;;5013056;28;20557;-78
2021/12/15 13:52:01;;;;;;;0.47;0.45;;;9.80;99.90;;;;;;5013292;28;20234;-78
2021/12/15 13:54:53;;;;;;;2.97;2.78;;;9.80;99.90;;;;;;5013586;28;20236;-77
2021/12/15 13:57:23;;;;;;;1.25;1.25;;;9.90;99.90;;;;;;5012975;28;20215;-77
2021/12/15 14:00:11;;;;;;;1.40;1.30;;;9.90;99.90;;;;;;5012878;28;20195;-77
2021/12/15 14:02:41;;;;;;;7.63;4.80;;;9.90;99.90;;;;;;5000509;28;20207;-77
2021/12/15 14:05:21;;;;;;;20.02;3.97;;;9.90;99.90;;;;;;5013217;28;20199;-77
2021/12/15 14:07:51;;;;;;;3.60;3.45;;;9.80;99.90;;;;;;5012922;28;20195;-77
2021/12/15 14:10:44;;;;;;;1.23;1.23;;;9.80;99.90;;;;;;5012203;28;20198;-77
2021/12/15 14:13:11;;;;;;;1.33;1.23;;;9.80;99.90;;;;;;5013145;28;20191;-77
2021/12/15 14:15:59;;;;;;;0.40;0.40;;;9.80;99.90;;;;;;5013407;28;20228;-77
2021/12/15 14:18:28;;;;;;;0.52;0.52;;;9.80;99.90;;;;;;5008055;28;20684;-77
2021/12/15 14:20:59;;;;;;;2.20;0.95;;;9.90;99.90;;;;;;5012430;28;20192;-77
2021/12/15 14:23:29;;;;;;;3.08;2.85;;;9.90;99.90;;;;;;5012517;28;20546;-77